Time;durP1;ratioP1;P1;durP2;ratioP2;P2;SDS_P1;SDS_P2;PMS_P1;PMS_P2;Temp;Humidity;BMP_temperature;BMP_pressure;BME280_temperature;BME280_humidity;BME280_pressure;Samples;Min_cycle;Max_cycle;Signal;HPM_P1;HPM_P2
2023/01/29 00:01:33;;;;;;;10.43;5.90;;;-0.40;99.90;;;;;;4978607;28;20211;-73
2023/01/29 00:04:00;;;;;;;9.07;5.73;;;-0.40;99.90;;;;;;4996288;28;20200;-73
2023/01/29 00:06:27;;;;;;;9.57;6.00;;;-0.40;99.90;;;;;;4994985;28;20725;-71
2023/01/29 00:08:54;;;;;;;9.67;5.73;;;-0.30;99.90;;;;;;4961680;28;20675;-70
2023/01/29 00:11:22;;;;;;;9.33;6.00;;;-0.30;99.90;;;;;;4995682;28;20211;-71
2023/01/29 00:13:50;;;;;;;11.43;6.63;;;-0.40;99.90;;;;;;4977056;28;20254;-69
2023/01/29 00:16:17;;;;;;;13.23;7.17;;;-0.40;99.90;;;;;;4973259;28;20207;-71
2023/01/29 00:18:44;;;;;;;12.67;7.10;;;-0.50;99.90;;;;;;4994702;28;20211;-72
2023/01/29 00:21:14;;;;;;;9.33;6.73;;;-0.40;99.90;;;;;;4994676;28;20200;-75
2023/01/29 00:23:41;;;;;;;12.63;7.73;;;-0.40;99.90;;;;;;4995600;28;20658;-73
2023/01/29 00:26:09;;;;;;;13.00;7.70;;;-0.50;99.90;;;;;;4995704;28;20206;-71
2023/01/29 00:28:36;;;;;;;10.73;7.17;;;-0.60;99.90;;;;;;4994829;28;20592;-72
2023/01/29 00:31:07;;;;;;;12.83;7.23;;;-0.50;99.90;;;;;;4992032;28;20262;-74
2023/01/29 00:33:35;;;;;;;12.73;7.53;;;-0.40;99.90;;;;;;4974746;28;20211;-70
2023/01/29 00:36:06;;;;;;;13.03;7.43;;;-0.40;99.90;;;;;;4978124;28;20203;-71
2023/01/29 00:38:34;;;;;;;9.57;6.33;;;-0.40;99.90;;;;;;4978241;28;20208;-71
2023/01/29 00:46:45;;;;;;;9.43;6.07;;;-0.60;99.90;;;;;;4995305;28;20298;-71
2023/01/29 00:49:11;;;;;;;10.63;5.27;;;-0.60;99.90;;;;;;4975911;28;20192;-79
2023/01/29 00:51:39;;;;;;;9.63;5.97;;;-0.70;99.90;;;;;;4994806;28;20200;-78
2023/01/29 00:54:05;;;;;;;9.33;5.47;;;-0.70;99.90;;;;;;4995033;28;21406;-75
2023/01/29 00:56:35;;;;;;;10.53;5.87;;;-0.60;99.90;;;;;;4982261;28;20588;-73
2023/01/29 00:59:03;;;;;;;8.33;5.80;;;-0.50;99.90;;;;;;4977243;28;20226;-70
2023/01/29 01:04:15;;;;;;;11.03;6.10;;;-0.50;99.90;;;;;;4992948;28;20200;-71
2023/01/29 01:06:42;;;;;;;9.20;6.23;;;-0.50;99.90;;;;;;4990640;28;20238;-71
2023/01/29 01:11:55;;;;;;;9.70;5.50;;;-0.70;99.90;;;;;;4990428;28;20301;-72
2023/01/29 01:14:22;;;;;;;10.83;5.60;;;-0.70;99.90;;;;;;4975293;28;20252;-70
2023/01/29 01:16:49;;;;;;;9.00;4.93;;;-0.70;99.90;;;;;;4975176;28;20221;-71
2023/01/29 01:19:15;;;;;;;7.83;4.80;;;-0.60;99.90;;;;;;4975612;28;20181;-70
2023/01/29 01:21:44;;;;;;;8.47;4.80;;;-0.60;99.90;;;;;;4974013;28;20303;-73
2023/01/29 01:24:11;;;;;;;8.70;4.47;;;-0.60;99.90;;;;;;4974074;28;20201;-72
2023/01/29 01:26:38;;;;;;;7.57;4.60;;;-0.60;99.90;;;;;;4973684;28;20227;-73
2023/01/29 01:29:05;;;;;;;7.60;4.97;;;-0.80;99.90;;;;;;4975675;28;20196;-73
2023/01/29 01:31:32;;;;;;;8.50;4.90;;;-1.00;99.90;;;;;;4973579;28;20205;-70
2023/01/29 01:33:59;;;;;;;8.20;5.00;;;-0.90;99.90;;;;;;4974300;28;20199;-74
2023/01/29 01:36:26;;;;;;;8.80;4.63;;;-0.80;99.90;;;;;;4973632;28;20191;-74
2023/01/29 01:38:53;;;;;;;8.10;4.73;;;-0.80;99.90;;;;;;4974842;28;20200;-73
2023/01/29 01:41:22;;;;;;;7.90;4.67;;;-0.80;99.90;;;;;;4973197;28;20191;-73
2023/01/29 01:43:54;;;;;;;6.80;4.63;;;-0.70;99.90;;;;;;4973808;28;20570;-74
2023/01/29 01:46:22;;;;;;;8.87;4.53;;;-0.70;99.90;;;;;;4974867;28;20199;-75
2023/01/29 01:49:01;;;;;;;9.80;4.93;;;-0.70;99.90;;;;;;4973903;28;20208;-70
2023/01/29 01:51:30;;;;;;;8.43;4.67;;;-0.80;99.90;;;;;;4973702;28;20202;-73
2023/01/29 01:54:04;;;;;;;7.47;4.80;;;-0.80;99.90;;;;;;4973594;28;20218;-69
2023/01/29 01:56:39;;;;;;;8.90;4.77;;;-0.90;99.90;;;;;;4973266;28;20204;-72
2023/01/29 01:59:10;;;;;;;7.90;4.57;;;-1.00;99.90;;;;;;4974662;28;20630;-74
2023/01/29 02:01:41;;;;;;;7.03;4.40;;;-0.90;99.90;;;;;;4974324;28;20207;-72
2023/01/29 02:10:08;;;;;;;8.53;4.67;;;-0.80;99.90;;;;;;4975620;28;20193;-72
2023/01/29 02:12:37;;;;;;;8.17;4.60;;;-0.80;99.90;;;;;;4991958;28;20570;-69
2023/01/29 02:15:04;;;;;;;7.07;4.60;;;-0.80;99.90;;;;;;4987439;28;20193;-74
2023/01/29 02:17:31;;;;;;;7.63;4.97;;;-0.80;99.90;;;;;;4972323;28;20216;-74
2023/01/29 02:20:07;;;;;;;8.13;4.47;;;-0.70;99.90;;;;;;4975061;28;20712;-72
2023/01/29 02:22:43;;;;;;;12.10;5.23;;;-0.70;99.90;;;;;;4991252;28;20580;-70
2023/01/29 02:25:28;;;;;;;9.00;5.37;;;-0.80;99.90;;;;;;4974682;28;20560;-71
2023/01/29 02:28:25;;;;;;;9.67;5.27;;;-1.00;99.90;;;;;;4991329;28;20218;-69
2023/01/29 02:31:17;;;;;;;10.23;5.67;;;-0.90;99.90;;;;;;4990759;28;20222;-75
2023/01/29 02:34:16;;;;;;;11.37;5.83;;;-0.80;99.90;;;;;;4991024;28;20195;-72
2023/01/29 02:36:49;;;;;;;11.30;6.37;;;-0.90;99.90;;;;;;4988699;28;20586;-73
2023/01/29 02:39:38;;;;;;;13.00;7.27;;;-1.00;99.90;;;;;;4985636;28;20302;-70
2023/01/29 02:42:26;;;;;;;14.70;7.63;;;-0.90;99.90;;;;;;4990005;28;20549;-69
2023/01/29 02:45:29;;;;;;;12.97;6.73;;;-0.90;99.90;;;;;;4986529;28;20209;-73
2023/01/29 02:47:59;;;;;;;12.77;6.67;;;-0.90;99.90;;;;;;4990621;28;20299;-73
2023/01/29 02:50:42;;;;;;;10.50;6.13;;;-0.90;99.90;;;;;;4993638;28;20207;-71
2023/01/29 02:53:17;;;;;;;10.33;6.10;;;-0.90;99.90;;;;;;4985122;28;20211;-72
2023/01/29 02:56:01;;;;;;;10.00;5.57;;;-0.80;99.90;;;;;;4993335;28;20204;-74
2023/01/29 02:58:31;;;;;;;9.23;5.53;;;-0.80;99.90;;;;;;4975600;28;20246;-70
2023/01/29 03:01:22;;;;;;;10.60;5.90;;;-0.80;99.90;;;;;;4975975;28;20194;-76
2023/01/29 03:03:53;;;;;;;13.13;5.93;;;-0.90;99.90;;;;;;4956931;28;20293;-72
2023/01/29 03:06:29;;;;;;;10.63;5.80;;;-1.00;99.90;;;;;;4953414;29;20227;-78
2023/01/29 03:09:00;;;;;;;10.87;6.10;;;-1.00;99.90;;;;;;4971489;28;20661;-78
2023/01/29 03:11:36;;;;;;;12.67;5.90;;;-0.90;99.90;;;;;;4968278;28;20206;-78
2023/01/29 03:14:15;;;;;;;10.73;5.70;;;-1.00;99.90;;;;;;4969667;28;20303;-77
2023/01/29 03:16:51;;;;;;;11.03;5.83;;;-1.00;99.90;;;;;;4954955;29;20197;-76
2023/01/29 03:19:25;;;;;;;11.20;6.17;;;-0.90;99.90;;;;;;4982165;28;20315;-78
2023/01/29 03:21:59;;;;;;;11.03;6.40;;;-0.90;99.90;;;;;;4968292;28;20205;-77
2023/01/29 03:33:24;;;;;;;11.37;6.13;;;-0.80;99.90;;;;;;4970215;28;20297;-76
2023/01/29 03:35:59;;;;;;;11.03;6.03;;;-0.80;99.90;;;;;;4973334;28;20214;-77
2023/01/29 03:38:28;;;;;;;11.83;6.50;;;-0.80;99.90;;;;;;4974059;28;20295;-77
2023/01/29 03:41:03;;;;;;;11.07;6.37;;;-0.90;99.90;;;;;;4972557;28;20626;-76
2023/01/29 03:43:51;;;;;;;10.63;6.50;;;-0.90;99.90;;;;;;4973007;28;20219;-76
2023/01/29 03:46:37;;;;;;;11.50;6.70;;;-1.00;99.90;;;;;;4971935;28;20561;-76
2023/01/29 03:49:07;;;;;;;10.97;6.50;;;-1.00;99.90;;;;;;4966372;28;20653;-76
2023/01/29 03:51:37;;;;;;;12.60;6.43;;;-0.90;99.90;;;;;;4972480;28;20192;-77
2023/01/29 03:54:14;;;;;;;10.87;6.30;;;-0.90;99.90;;;;;;4972659;28;20227;-76
2023/01/29 03:57:01;;;;;;;10.60;6.10;;;-0.80;99.90;;;;;;4975492;28;20200;-76
2023/01/29 03:59:40;;;;;;;10.93;5.77;;;-0.80;99.90;;;;;;4960111;28;20298;-75
2023/01/29 04:02:14;;;;;;;11.70;6.17;;;-0.80;99.90;;;;;;4976047;28;20289;-77
2023/01/29 04:04:44;;;;;;;10.27;6.57;;;-0.80;99.90;;;;;;4976810;28;20636;-76
2023/01/29 04:07:22;;;;;;;11.87;6.40;;;-0.90;99.90;;;;;;4979749;28;20197;-76
2023/01/29 04:09:53;;;;;;;12.87;6.97;;;-0.90;99.90;;;;;;4996598;28;20684;-77
2023/01/29 04:12:27;;;;;;;12.93;6.47;;;-0.90;99.90;;;;;;4979337;28;20215;-77
2023/01/29 04:14:57;;;;;;;9.13;5.90;;;-0.80;99.90;;;;;;4994859;28;20201;-73
2023/01/29 04:17:33;;;;;;;10.93;6.27;;;-0.80;99.90;;;;;;4968820;28;20219;-73
2023/01/29 04:20:00;;;;;;;10.73;5.90;;;-0.80;99.90;;;;;;4985489;28;20211;-74
2023/01/29 04:22:33;;;;;;;10.50;5.87;;;-0.70;99.90;;;;;;4978698;28;20189;-75
2023/01/29 04:25:08;;;;;;;12.90;6.37;;;-0.70;99.90;;;;;;4963430;28;20182;-74
2023/01/29 04:27:47;;;;;;;8.60;5.37;;;-0.70;99.90;;;;;;4977411;28;20205;-75
2023/01/29 04:30:33;;;;;;;10.50;5.60;;;-0.80;99.90;;;;;;4978240;28;20194;-75
2023/01/29 04:33:11;;;;;;;11.70;6.33;;;-0.80;99.90;;;;;;4977958;28;20223;-74
2023/01/29 04:36:06;;;;;;;11.40;5.90;;;-0.70;99.90;;;;;;4994224;28;20204;-74
2023/01/29 04:38:45;;;;;;;10.03;5.30;;;-0.70;99.90;;;;;;4978131;28;20375;-73
2023/01/29 04:41:25;;;;;;;10.20;5.73;;;-0.80;99.90;;;;;;4994088;28;20199;-74
2023/01/29 04:44:04;;;;;;;10.27;5.73;;;-0.80;99.90;;;;;;4994258;28;20193;-74
2023/01/29 04:46:34;;;;;;;10.07;5.77;;;-0.80;99.90;;;;;;4994404;28;20227;-74
2023/01/29 04:49:16;;;;;;;12.07;6.10;;;-0.90;99.90;;;;;;4994281;28;20189;-75
2023/01/29 04:51:54;;;;;;;9.90;5.37;;;-0.90;99.90;;;;;;4995412;28;20199;-75
2023/01/29 04:54:50;;;;;;;10.57;5.83;;;-0.70;99.90;;;;;;4995838;28;20207;-74
2023/01/29 04:57:24;;;;;;;10.83;6.07;;;-0.80;99.90;;;;;;4995593;28;20212;-75
2023/01/29 05:00:08;;;;;;;10.77;5.80;;;-0.80;99.90;;;;;;4995320;28;20200;-74
2023/01/29 05:02:40;;;;;;;11.20;5.77;;;-0.80;99.90;;;;;;4995741;28;20213;-75
2023/01/29 05:05:08;;;;;;;10.93;5.80;;;-0.90;99.90;;;;;;4977803;28;20793;-75
2023/01/29 05:07:37;;;;;;;10.77;6.07;;;-0.90;99.90;;;;;;4976531;28;20204;-76
2023/01/29 05:10:07;;;;;;;10.40;5.63;;;-0.80;99.90;;;;;;4977813;28;20196;-76
2023/01/29 05:12:36;;;;;;;10.17;5.67;;;-0.70;99.90;;;;;;4993876;28;20649;-76
2023/01/29 05:15:09;;;;;;;12.60;5.93;;;-0.70;99.90;;;;;;4977211;28;20197;-76
2023/01/29 05:17:37;;;;;;;10.40;5.57;;;-0.70;99.90;;;;;;4995135;28;20226;-76
2023/01/29 05:20:05;;;;;;;10.47;5.63;;;-0.70;99.90;;;;;;4992473;28;20206;-76
2023/01/29 05:22:32;;;;;;;11.40;5.60;;;-0.70;99.90;;;;;;4995056;28;20196;-76
2023/01/29 05:24:58;;;;;;;8.60;5.80;;;-0.70;99.90;;;;;;4977545;28;20643;-76
2023/01/29 05:30:18;;;;;;;11.67;6.03;;;-0.80;99.90;;;;;;4977979;28;20577;-76
2023/01/29 05:32:45;;;;;;;11.40;6.07;;;-0.80;99.90;;;;;;4995297;28;20200;-78
2023/01/29 05:35:12;;;;;;;11.27;6.20;;;-0.80;99.90;;;;;;4977974;28;20226;-77
2023/01/29 05:37:39;;;;;;;9.27;5.77;;;-0.80;99.90;;;;;;4994524;28;20196;-82
2023/01/29 05:40:07;;;;;;;10.27;5.87;;;-0.70;99.90;;;;;;4993599;28;20647;-76
2023/01/29 05:42:34;;;;;;;10.97;6.43;;;-0.80;99.90;;;;;;4976871;28;20262;-77
2023/01/29 05:45:01;;;;;;;10.87;6.30;;;-0.80;99.90;;;;;;4993382;28;20204;-77
2023/01/29 05:47:28;;;;;;;12.13;6.40;;;-0.70;99.90;;;;;;4976890;28;20206;-77
2023/01/29 05:49:55;;;;;;;12.07;6.13;;;-0.70;99.90;;;;;;4993023;28;20211;-77
2023/01/29 05:52:21;;;;;;;13.23;6.50;;;-0.60;99.90;;;;;;4993558;28;20287;-77
2023/01/29 05:54:48;;;;;;;9.83;5.73;;;-0.70;99.90;;;;;;4993336;28;20220;-79
2023/01/29 05:57:15;;;;;;;12.20;5.97;;;-0.80;99.90;;;;;;4993129;28;20213;-79
2023/01/29 05:59:42;;;;;;;10.23;6.07;;;-0.70;99.90;;;;;;4993383;28;20684;-78
2023/01/29 06:02:09;;;;;;;11.50;6.47;;;-0.60;99.90;;;;;;4977198;28;20204;-79
2023/01/29 06:04:36;;;;;;;11.23;6.27;;;-0.70;99.90;;;;;;4994877;28;20193;-80
2023/01/29 06:07:04;;;;;;;13.67;7.00;;;-0.70;99.90;;;;;;4974045;28;20187;-80
2023/01/29 06:09:30;;;;;;;13.33;6.63;;;-0.70;99.90;;;;;;4973978;28;20201;-79
2023/01/29 06:11:57;;;;;;;10.63;6.53;;;-0.70;99.90;;;;;;4973949;28;20241;-79
2023/01/29 06:17:27;;;;;;;10.87;6.23;;;-0.70;99.90;;;;;;5092748;23;20664;-80
2023/01/29 06:19:54;;;;;;;10.47;6.23;;;-0.80;99.90;;;;;;4976638;28;20224;-80
2023/01/29 06:22:21;;;;;;;11.80;6.63;;;-0.80;99.90;;;;;;4983712;28;20552;-77
2023/01/29 06:24:48;;;;;;;12.87;6.83;;;-0.70;99.90;;;;;;4992688;28;20198;-76
2023/01/29 06:27:15;;;;;;;13.27;6.80;;;-0.70;99.90;;;;;;4992168;28;20214;-76
2023/01/29 06:29:41;;;;;;;11.40;6.13;;;-0.70;99.90;;;;;;4994667;28;20200;-76
2023/01/29 06:32:08;;;;;;;14.20;7.20;;;-0.70;99.90;;;;;;5009147;28;20203;-76
2023/01/29 06:34:35;;;;;;;13.77;7.10;;;-0.70;99.90;;;;;;4994423;28;20342;-79
2023/01/29 06:37:02;;;;;;;12.43;6.57;;;-0.70;99.90;;;;;;5009152;28;20567;-77
2023/01/29 06:39:29;;;;;;;13.97;6.67;;;-0.70;99.90;;;;;;4976801;28;20580;-77
2023/01/29 06:41:56;;;;;;;12.50;6.97;;;-0.70;99.90;;;;;;4993754;28;20195;-77
2023/01/29 06:44:23;;;;;;;13.17;6.67;;;-0.70;99.90;;;;;;4992758;28;20208;-75
2023/01/29 06:46:49;;;;;;;13.93;6.77;;;-0.70;99.90;;;;;;4992817;28;20209;-76
2023/01/29 06:49:16;;;;;;;11.13;6.47;;;-0.60;99.90;;;;;;4994284;28;20189;-75
2023/01/29 06:51:43;;;;;;;11.67;6.73;;;-0.60;99.90;;;;;;4993491;28;20215;-76
2023/01/29 06:54:10;;;;;;;15.30;7.60;;;-0.60;99.90;;;;;;4993861;28;20196;-79
2023/01/29 06:56:37;;;;;;;13.40;7.07;;;-0.60;99.90;;;;;;4992068;28;20224;-78
2023/01/29 06:59:05;;;;;;;12.07;6.70;;;-0.60;99.90;;;;;;4991795;28;20234;-79
2023/01/29 07:01:32;;;;;;;11.73;6.67;;;-0.60;99.90;;;;;;4991954;28;20646;-78
2023/01/29 07:04:02;;;;;;;13.80;7.20;;;-0.50;99.90;;;;;;4986713;28;20215;-78
2023/01/29 07:06:30;;;;;;;12.60;7.17;;;-0.50;99.90;;;;;;4992209;28;20660;-78
2023/01/29 07:08:57;;;;;;;14.43;7.00;;;-0.50;99.90;;;;;;4992551;28;20226;-80
2023/01/29 07:11:25;;;;;;;18.17;7.93;;;-0.50;99.90;;;;;;4994069;28;20180;-79
2023/01/29 07:13:55;;;;;;;13.50;6.90;;;-0.50;99.90;;;;;;4992519;28;20243;-80
2023/01/29 07:16:25;;;;;;;12.30;6.93;;;-0.50;99.90;;;;;;4991704;28;20220;-77
2023/01/29 07:18:52;;;;;;;13.67;6.50;;;-0.50;99.90;;;;;;4991922;28;20222;-79
2023/01/29 07:21:19;;;;;;;12.43;6.17;;;-0.50;99.90;;;;;;4965248;28;20213;-77
2023/01/29 07:23:47;;;;;;;11.13;6.30;;;-0.50;99.90;;;;;;4993249;28;20220;-76
2023/01/29 07:26:14;;;;;;;12.03;6.23;;;-0.50;99.90;;;;;;4993813;28;20546;-78
2023/01/29 07:28:41;;;;;;;11.33;5.93;;;-0.40;99.90;;;;;;4993418;28;20660;-77
2023/01/29 07:31:11;;;;;;;14.80;6.43;;;-0.50;99.90;;;;;;4995565;28;20190;-78
2023/01/29 07:33:38;;;;;;;10.93;6.20;;;-0.40;99.90;;;;;;4978399;28;20215;-78
2023/01/29 07:36:10;;;;;;;11.83;6.17;;;-0.50;99.90;;;;;;4997089;28;20208;-80
2023/01/29 07:38:37;;;;;;;10.93;6.07;;;-0.40;99.90;;;;;;4979557;28;20279;-79
2023/01/29 07:41:04;;;;;;;11.50;6.33;;;-0.30;99.90;;;;;;4979886;28;20623;-79
2023/01/29 07:43:31;;;;;;;12.20;6.57;;;-0.40;99.90;;;;;;4979588;28;20653;-77
2023/01/29 07:46:04;;;;;;;10.47;6.30;;;-0.30;99.90;;;;;;4980371;28;20243;-77
2023/01/29 07:48:31;;;;;;;11.43;6.07;;;-0.30;99.90;;;;;;4960279;28;20224;-77
2023/01/29 07:50:58;;;;;;;10.00;5.90;;;-0.30;99.90;;;;;;4960386;28;20577;-79
2023/01/29 07:53:27;;;;;;;13.47;6.60;;;-0.20;99.90;;;;;;4977889;28;20566;-76
2023/01/29 07:55:54;;;;;;;13.13;6.57;;;-0.20;99.90;;;;;;4959973;28;20658;-81
2023/01/29 07:58:21;;;;;;;10.80;6.13;;;-0.20;99.90;;;;;;4959966;28;20218;-80
2023/01/29 08:00:48;;;;;;;13.30;6.73;;;-0.20;99.90;;;;;;4960099;28;20304;-82
2023/01/29 08:03:17;;;;;;;12.17;6.60;;;-0.10;99.90;;;;;;4959982;28;20624;-81
2023/01/29 08:05:44;;;;;;;14.60;6.67;;;-0.10;99.90;;;;;;4977380;28;20205;-76
2023/01/29 08:08:11;;;;;;;11.87;6.37;;;-0.20;99.90;;;;;;4976961;28;20195;-77
2023/01/29 08:10:39;;;;;;;12.93;7.00;;;-0.20;99.90;;;;;;4971360;28;20247;-74
2023/01/29 08:13:07;;;;;;;14.33;5.93;;;-0.20;99.90;;;;;;4995603;28;20197;-74
2023/01/29 08:15:34;;;;;;;15.13;7.07;;;-0.10;99.90;;;;;;4978373;28;20643;-74
2023/01/29 08:18:04;;;;;;;14.13;6.40;;;-0.10;99.90;;;;;;4978516;28;20247;-75
2023/01/29 08:20:31;;;;;;;13.07;6.90;;;0.00;99.90;;;;;;4978599;28;20296;-75
2023/01/29 08:23:00;;;;;;;11.27;6.43;;;0.00;99.90;;;;;;4978819;28;20620;-75
2023/01/29 08:25:28;;;;;;;11.97;6.53;;;-0.10;99.90;;;;;;4995892;28;20198;-80
2023/01/29 08:27:57;;;;;;;13.37;6.47;;;0.00;99.90;;;;;;4979051;28;20510;-79
2023/01/29 08:30:27;;;;;;;12.73;6.47;;;-0.10;99.90;;;;;;4979261;28;20285;-78
2023/01/29 08:32:54;;;;;;;12.40;6.40;;;-0.20;99.90;;;;;;4996000;28;20199;-81
2023/01/29 08:35:25;;;;;;;10.60;5.93;;;-0.20;99.90;;;;;;4995871;28;20200;-78
2023/01/29 08:37:58;;;;;;;13.80;6.97;;;-0.10;99.90;;;;;;4979096;28;20672;-78
2023/01/29 08:40:30;;;;;;;13.27;6.63;;;0.00;99.90;;;;;;4994834;28;20222;-78
2023/01/29 08:43:03;;;;;;;14.13;6.90;;;0.10;99.90;;;;;;4978762;28;20208;-78
2023/01/29 08:45:34;;;;;;;10.80;6.23;;;0.20;99.90;;;;;;4978839;28;20204;-78
2023/01/29 08:48:01;;;;;;;13.83;6.57;;;0.20;99.90;;;;;;4978480;28;20608;-76
2023/01/29 08:50:30;;;;;;;10.80;6.37;;;0.10;99.90;;;;;;4979008;28;20195;-82
2023/01/29 08:52:59;;;;;;;9.10;6.20;;;0.20;99.90;;;;;;4979771;28;20263;-81
2023/01/29 08:55:27;;;;;;;13.47;6.50;;;0.20;99.90;;;;;;4978426;28;20195;-79
2023/01/29 08:57:56;;;;;;;13.50;6.70;;;0.20;99.90;;;;;;4979111;28;20222;-80
2023/01/29 09:00:23;;;;;;;14.43;6.50;;;0.20;99.90;;;;;;4979324;28;20227;-82
2023/01/29 09:02:51;;;;;;;15.97;7.10;;;0.30;99.90;;;;;;4995957;28;20278;-81
2023/01/29 09:05:18;;;;;;;14.20;6.57;;;0.10;99.90;;;;;;4962246;28;20231;-81
2023/01/29 09:07:46;;;;;;;13.53;6.73;;;0.20;99.90;;;;;;4977542;28;20219;-75
2023/01/29 09:10:13;;;;;;;12.30;6.80;;;0.10;99.90;;;;;;4985806;28;20189;-77
2023/01/29 09:12:40;;;;;;;13.43;7.00;;;0.10;99.90;;;;;;4981124;28;20657;-83
2023/01/29 09:15:07;;;;;;;11.07;6.10;;;0.20;99.90;;;;;;4977583;28;20222;-79
2023/01/29 09:17:35;;;;;;;13.03;6.30;;;0.30;99.90;;;;;;4995959;28;20248;-80
2023/01/29 09:20:04;;;;;;;12.57;6.50;;;0.30;99.90;;;;;;4995668;28;20247;-79
2023/01/29 09:22:32;;;;;;;12.90;6.37;;;0.40;99.90;;;;;;4965998;28;20282;-78
2023/01/29 09:24:59;;;;;;;11.27;6.20;;;0.50;99.90;;;;;;4961793;28;20294;-82
2023/01/29 09:27:26;;;;;;;12.60;6.80;;;0.60;99.90;;;;;;4958787;28;20288;-77
2023/01/29 09:29:53;;;;;;;12.40;6.37;;;0.60;99.90;;;;;;4958225;28;20599;-77
2023/01/29 09:32:20;;;;;;;11.37;6.70;;;0.70;99.90;;;;;;4959023;28;20639;-79
2023/01/29 09:35:08;;;;;;;11.93;6.33;;;0.60;99.90;;;;;;4958002;28;20197;-78
2023/01/29 09:37:35;;;;;;;11.63;6.47;;;0.80;99.90;;;;;;4960631;28;20666;-84
2023/01/29 09:40:02;;;;;;;13.67;6.67;;;0.80;99.90;;;;;;4960123;28;20239;-81
2023/01/29 09:42:48;;;;;;;13.90;7.17;;;0.80;99.90;;;;;;4960149;28;20644;-83
2023/01/29 09:45:20;;;;;;;12.53;6.50;;;0.90;99.90;;;;;;4974972;28;20200;-83
2023/01/29 09:47:47;;;;;;;12.63;6.70;;;1.00;99.90;;;;;;4979437;28;20599;-79
2023/01/29 09:50:25;;;;;;;13.90;6.73;;;0.90;99.90;;;;;;4989563;28;20654;-77
2023/01/29 09:53:12;;;;;;;13.47;7.07;;;0.90;99.90;;;;;;4985174;28;20295;-81
2023/01/29 09:55:55;;;;;;;15.93;6.60;;;0.60;99.90;;;;;;4994840;28;20210;-82
2023/01/29 09:58:37;;;;;;;12.97;6.47;;;0.80;99.90;;;;;;4979846;28;20307;-81
2023/01/29 10:01:31;;;;;;;16.80;6.77;;;0.80;99.90;;;;;;4978392;28;20656;-85
2023/01/29 10:04:17;;;;;;;11.83;6.67;;;1.00;99.90;;;;;;4977504;28;20193;-81
2023/01/29 10:07:22;;;;;;;13.33;7.20;;;0.90;99.90;;;;;;4977814;28;20298;-84
2023/01/29 10:09:58;;;;;;;12.47;6.77;;;1.10;99.90;;;;;;4994649;28;20224;-82
2023/01/29 10:12:49;;;;;;;14.07;6.63;;;1.40;99.90;;;;;;4958557;28;20207;-82
2023/01/29 10:15:26;;;;;;;12.77;6.73;;;1.50;99.90;;;;;;4963883;28;20216;-80
2023/01/29 10:18:24;;;;;;;11.57;6.93;;;1.60;99.90;;;;;;4977017;28;20201;-79
2023/01/29 10:21:06;;;;;;;13.37;6.53;;;1.50;99.90;;;;;;4972438;28;20228;-78
2023/01/29 10:23:39;;;;;;;13.80;7.00;;;1.50;99.90;;;;;;4981591;28;20197;-75
2023/01/29 10:26:11;;;;;;;14.93;6.53;;;1.60;99.90;;;;;;4992106;28;20249;-75
2023/01/29 10:28:49;;;;;;;12.47;6.53;;;1.50;99.90;;;;;;4980190;28;20615;-79
2023/01/29 10:31:20;;;;;;;13.83;6.73;;;1.40;99.90;;;;;;4988230;28;20201;-74
2023/01/29 10:34:10;;;;;;;14.40;6.37;;;1.40;99.90;;;;;;4976085;28;20192;-72
2023/01/29 10:36:48;;;;;;;12.23;6.70;;;1.30;99.90;;;;;;4976279;28;20189;-79
2023/01/29 10:39:28;;;;;;;12.97;6.73;;;1.30;99.90;;;;;;4993204;28;20712;-75
2023/01/29 10:42:19;;;;;;;12.83;6.77;;;1.40;99.90;;;;;;4976462;28;20697;-75
2023/01/29 10:45:08;;;;;;;12.73;6.70;;;1.30;99.90;;;;;;4976852;28;20204;-83
2023/01/29 10:47:47;;;;;;;13.57;6.57;;;1.20;99.90;;;;;;4976025;28;20647;-75
2023/01/29 10:50:41;;;;;;;17.60;6.90;;;1.30;99.90;;;;;;4976125;28;20212;-76
2023/01/29 10:53:47;;;;;;;14.07;7.00;;;1.30;99.90;;;;;;4976506;28;20214;-76
2023/01/29 10:56:23;;;;;;;14.60;7.17;;;1.30;99.90;;;;;;4973976;28;20564;-76
2023/01/29 10:59:06;;;;;;;15.27;8.47;;;1.20;99.90;;;;;;4992990;28;20662;-76
2023/01/29 11:01:34;;;;;;;15.23;7.77;;;1.10;99.90;;;;;;4976048;28;20179;-77
2023/01/29 11:04:05;;;;;;;13.93;7.27;;;1.00;99.90;;;;;;4975380;28;20200;-76
2023/01/29 11:06:35;;;;;;;13.60;7.70;;;1.10;99.90;;;;;;4996468;28;20550;-77
2023/01/29 11:09:17;;;;;;;15.70;8.30;;;1.30;99.90;;;;;;4995962;28;20215;-76
2023/01/29 11:11:53;;;;;;;15.43;7.77;;;1.20;99.90;;;;;;5012485;28;20654;-77
2023/01/29 11:14:38;;;;;;;16.77;7.87;;;1.20;99.90;;;;;;4979333;28;20204;-77
2023/01/29 11:17:04;;;;;;;17.17;8.13;;;1.00;99.90;;;;;;4989926;28;20245;-78
2023/01/29 11:19:41;;;;;;;15.37;8.17;;;1.20;99.90;;;;;;5028751;28;20247;-76
2023/01/29 11:22:28;;;;;;;21.47;8.90;;;1.00;99.90;;;;;;5028789;28;20262;-75
2023/01/29 11:25:16;;;;;;;17.83;8.07;;;1.20;99.90;;;;;;4979224;28;20294;-76
2023/01/29 11:27:46;;;;;;;17.30;9.17;;;1.00;99.90;;;;;;4995444;28;20580;-76
2023/01/29 11:30:34;;;;;;;17.00;8.57;;;1.30;99.90;;;;;;4996090;28;20265;-77
2023/01/29 11:33:05;;;;;;;15.73;8.10;;;1.30;99.90;;;;;;4995574;28;20299;-76
2023/01/29 11:35:34;;;;;;;16.20;8.40;;;1.30;99.90;;;;;;5028486;28;20257;-77
2023/01/29 11:38:14;;;;;;;18.43;8.00;;;1.30;99.90;;;;;;4995569;28;20201;-77
2023/01/29 11:40:42;;;;;;;15.47;8.27;;;1.20;99.90;;;;;;5027920;28;20227;-76
2023/01/29 11:43:21;;;;;;;17.93;8.10;;;1.30;99.90;;;;;;4995221;28;20709;-75
2023/01/29 11:45:52;;;;;;;16.87;8.17;;;1.30;99.90;;;;;;4994956;28;20199;-77
2023/01/29 11:48:21;;;;;;;16.57;8.13;;;1.20;99.90;;;;;;4995581;28;20196;-79
2023/01/29 11:50:59;;;;;;;15.90;7.87;;;1.20;99.90;;;;;;4996882;28;20315;-77
2023/01/29 11:53:39;;;;;;;14.53;7.60;;;1.10;99.90;;;;;;4996536;28;20200;-77
2023/01/29 11:56:41;;;;;;;15.33;7.80;;;1.10;99.90;;;;;;5022962;28;20249;-79
2023/01/29 11:59:30;;;;;;;15.23;7.70;;;1.00;99.90;;;;;;4935757;29;20583;-77
2023/01/29 12:02:13;;;;;;;17.43;8.40;;;1.00;99.90;;;;;;4944598;29;20657;-74
2023/01/29 12:04:40;;;;;;;14.50;7.77;;;1.00;99.90;;;;;;4919842;29;20203;-73
2023/01/29 12:07:13;;;;;;;16.77;7.87;;;1.00;99.90;;;;;;4955000;29;20198;-75
2023/01/29 12:09:40;;;;;;;15.63;8.40;;;0.90;99.90;;;;;;4971030;28;20216;-72
2023/01/29 12:12:30;;;;;;;15.50;7.63;;;1.00;99.90;;;;;;4939428;29;20669;-72
2023/01/29 12:15:13;;;;;;;15.77;8.37;;;0.90;99.90;;;;;;4954131;28;20209;-73
2023/01/29 12:17:46;;;;;;;18.40;9.13;;;0.80;99.90;;;;;;4938356;29;20547;-70
2023/01/29 12:20:42;;;;;;;14.20;7.83;;;0.70;99.90;;;;;;4938484;29;20236;-73
2023/01/29 12:23:24;;;;;;;14.90;8.60;;;0.80;99.90;;;;;;4970870;28;20198;-74
2023/01/29 12:25:59;;;;;;;15.43;8.53;;;0.80;99.90;;;;;;4938341;29;20218;-72
2023/01/29 12:28:29;;;;;;;16.67;8.77;;;0.70;99.90;;;;;;4938267;29;20197;-72
2023/01/29 12:31:11;;;;;;;17.97;8.90;;;0.70;99.90;;;;;;4954464;28;20198;-73
2023/01/29 12:33:45;;;;;;;16.30;8.53;;;0.70;99.90;;;;;;4970669;28;20686;-75
2023/01/29 12:36:40;;;;;;;17.40;9.00;;;0.70;99.90;;;;;;4974285;28;20599;-74
2023/01/29 12:39:15;;;;;;;20.30;9.43;;;0.70;99.90;;;;;;4989957;28;20544;-74
2023/01/29 12:42:03;;;;;;;17.07;9.23;;;0.70;99.90;;;;;;4993997;28;20218;-73
2023/01/29 12:44:50;;;;;;;16.77;9.57;;;0.60;99.90;;;;;;4994022;28;20216;-74
2023/01/29 12:47:27;;;;;;;17.90;9.70;;;0.60;99.90;;;;;;5004873;28;20294;-71
2023/01/29 12:49:59;;;;;;;18.73;9.43;;;0.70;99.90;;;;;;5014655;28;20192;-71
2023/01/29 12:52:46;;;;;;;19.90;9.93;;;0.70;99.90;;;;;;4997215;28;20266;-69
2023/01/29 12:55:23;;;;;;;17.87;9.77;;;0.70;99.90;;;;;;4990802;28;20204;-69
2023/01/29 12:58:00;;;;;;;18.83;10.07;;;0.60;99.90;;;;;;4993583;28;20236;-70
2023/01/29 13:00:33;;;;;;;17.33;9.10;;;0.70;99.90;;;;;;4993204;28;20662;-73
2023/01/29 13:03:15;;;;;;;16.13;9.47;;;0.70;99.90;;;;;;4990154;28;20200;-71
2023/01/29 13:06:04;;;;;;;19.63;10.00;;;0.70;99.90;;;;;;4991619;28;20247;-70
2023/01/29 13:09:06;;;;;;;18.93;10.20;;;0.70;99.90;;;;;;4974119;28;20203;-74
2023/01/29 13:11:39;;;;;;;19.60;9.63;;;0.60;99.90;;;;;;4974283;28;20201;-72
2023/01/29 13:14:19;;;;;;;19.97;10.07;;;0.60;99.90;;;;;;4973822;28;20209;-74
2023/01/29 13:16:51;;;;;;;17.07;10.00;;;0.60;99.90;;;;;;4975249;28;20228;-72
2023/01/29 13:19:37;;;;;;;19.10;10.20;;;0.60;99.90;;;;;;4957780;28;20207;-74
2023/01/29 13:22:17;;;;;;;18.73;10.57;;;0.60;99.90;;;;;;4957699;28;20262;-73
2023/01/29 13:24:44;;;;;;;20.90;10.40;;;0.60;99.90;;;;;;4942326;28;20299;-71
2023/01/29 13:27:31;;;;;;;19.00;10.33;;;0.60;99.90;;;;;;4974012;28;20214;-72
2023/01/29 13:29:59;;;;;;;18.83;10.10;;;0.60;99.90;;;;;;4957831;28;20673;-71
2023/01/29 13:32:28;;;;;;;21.40;10.90;;;0.60;99.90;;;;;;4974965;28;20210;-71
2023/01/29 13:35:00;;;;;;;19.97;10.57;;;0.60;99.90;;;;;;4957407;28;20200;-71
2023/01/29 13:37:34;;;;;;;22.77;10.50;;;0.60;99.90;;;;;;4957499;28;20207;-68
2023/01/29 13:40:05;;;;;;;20.20;10.50;;;0.60;99.90;;;;;;4969870;28;20219;-72
2023/01/29 13:42:45;;;;;;;21.20;10.87;;;0.50;99.90;;;;;;4993777;28;20645;-71
2023/01/29 13:45:36;;;;;;;19.47;10.50;;;0.50;99.90;;;;;;4975393;28;20276;-72